Time;durP1;ratioP1;P1;durP2;ratioP2;P2;SDS_P1;SDS_P2;PMS_P1;PMS_P2;Temp;Humidity;BMP_temperature;BMP_pressure;BME280_temperature;BME280_humidity;BME280_pressure;Samples;Min_cycle;Max_cycle;Signal;HPM_P1;HPM_P2
2021/12/23 00:01:58;;;;;;;19.08;3.78;;;;;;;20.67;56.09;99919.13;7313056;19;158532;-34
2021/12/23 00:04:24;;;;;;;6.28;2.15;;;;;;;20.52;56.34;99902.09;7313124;19;129237;-33
2021/12/23 00:06:49;;;;;;;18.10;3.55;;;;;;;20.57;56.75;99910.38;7313761;19;128838;-35
2021/12/23 00:09:14;;;;;;;13.35;3.08;;;;;;;20.56;57.06;99903.50;7312438;19;154252;-37
2021/12/23 00:11:40;;;;;;;26.35;4.88;;;;;;;20.51;56.75;99903.06;7313399;19;129444;-29
2021/12/23 00:14:08;;;;;;;17.70;3.67;;;;;;;20.47;56.97;99893.78;7312423;19;158658;-31
2021/12/23 00:24:38;;;;;;;13.73;3.08;;;;;;;20.46;57.41;99879.09;7314835;19;129401;-36
2021/12/23 00:27:04;;;;;;;13.60;3.30;;;;;;;20.44;57.04;99891.44;7313554;19;129179;-34
2021/12/23 00:29:29;;;;;;;13.10;3.03;;;;;;;20.45;57.11;99888.69;7312412;19;129062;-37
2021/12/23 00:31:55;;;;;;;13.53;3.03;;;;;;;20.35;57.27;99871.28;7311666;19;158185;-41
2021/12/23 00:34:20;;;;;;;16.20;3.33;;;;;;;20.46;57.03;99885.13;7311937;19;130344;-34
2021/12/23 00:36:46;;;;;;;11.57;3.15;;;;;;;20.46;57.09;99876.47;7310243;19;129456;-36
2021/12/23 00:39:14;;;;;;;20.13;3.80;;;;;;;20.45;56.87;99877.41;7307246;19;129557;-40
2021/12/23 00:41:42;;;;;;;19.85;3.97;;;;;;;20.49;56.90;99873.63;7312938;19;130671;-35
2021/12/23 00:44:07;;;;;;;14.60;3.35;;;;;;;20.45;57.11;99873.03;7306230;19;129810;-30
2021/12/23 00:46:32;;;;;;;15.77;3.58;;;;;;;20.50;57.50;99867.41;7305318;19;154877;-35
2021/12/23 00:48:58;;;;;;;11.52;3.03;;;;;;;20.51;57.37;99856.03;7310893;19;142431;-39
2021/12/23 00:51:23;;;;;;;12.02;2.95;;;;;;;20.55;56.98;99857.44;7312378;19;147029;-35
2021/12/23 00:53:51;;;;;;;25.38;5.15;;;;;;;20.55;56.99;99857.44;7309740;19;131156;-36
2021/12/23 00:56:24;;;;;;;15.40;3.22;;;;;;;20.61;57.05;99851.69;7350205;19;129358;-39
2021/12/23 00:58:50;;;;;;;14.75;3.03;;;;;;;20.66;56.76;99858.19;7344557;19;153389;-41
2021/12/23 01:01:16;;;;;;;17.07;3.00;;;;;;;20.72;56.73;99855.06;7345307;19;158702;-38
2021/12/23 01:03:41;;;;;;;25.05;4.43;;;;;;;20.80;55.78;99857.06;7345987;19;130299;-39
2021/12/23 01:06:07;;;;;;;16.90;3.25;;;;;;;20.83;56.01;99848.13;7345008;19;155039;-38
2021/12/23 01:08:32;;;;;;;11.00;3.00;;;;;;;20.82;55.53;99852.53;7344775;19;129985;-37
2021/12/23 01:10:59;;;;;;;12.57;3.10;;;;;;;20.85;55.80;99847.03;7345455;19;129476;-38
2021/12/23 01:13:27;;;;;;;15.00;3.30;;;;;;;20.85;55.68;99843.59;7346355;19;130869;-38
2021/12/23 01:16:48;;;;;;;19.00;3.65;;;;;;;20.73;55.60;99840.22;7342990;19;128904;-39
2021/12/23 01:18:52;;;;;;;15.48;3.53;;;;;;;20.72;55.67;99843.81;7345484;19;129450;-38
2021/12/23 01:21:17;;;;;;;7.68;2.35;;;;;;;20.72;56.17;99844.59;7345052;19;130253;-39
2021/12/23 01:23:54;;;;;;;14.20;3.13;;;;;;;20.67;56.63;99843.34;7346085;19;130435;-44
2021/12/23 01:26:22;;;;;;;10.65;2.95;;;;;;;20.68;55.62;99845.84;7344601;19;128937;-39
2021/12/23 01:28:51;;;;;;;18.27;3.70;;;;;;;20.66;56.03;99834.69;7344596;19;129523;-38
2021/12/23 01:31:17;;;;;;;13.77;3.10;;;;;;;20.51;56.77;99816.88;7345025;19;130210;-37
2021/12/23 01:33:42;;;;;;;19.90;3.95;;;;;;;20.52;56.35;99828.94;7344617;19;131147;-37
2021/12/23 01:36:08;;;;;;;13.98;3.47;;;;;;;20.54;56.16;99827.84;7342052;19;155094;-39
2021/12/23 01:38:33;;;;;;;10.98;3.08;;;;;;;20.49;56.67;99826.59;7344749;19;129334;-40
2021/12/23 01:40:59;;;;;;;12.27;3.15;;;;;;;20.42;56.68;99815.00;7342960;19;158209;-38
2021/12/23 01:43:25;;;;;;;13.43;3.20;;;;;;;20.57;56.04;99832.00;7340064;19;129632;-39
2021/12/23 01:45:50;;;;;;;20.67;3.95;;;;;;;20.60;56.47;99832.59;7342698;19;155958;-38
2021/12/23 01:48:17;;;;;;;9.70;2.70;;;;;;;20.60;56.56;99835.22;7343320;19;129414;-40
2021/12/23 01:50:43;;;;;;;15.70;3.65;;;;;;;20.61;56.47;99830.78;7341294;19;130678;-40
2021/12/23 01:53:08;;;;;;;15.10;3.30;;;;;;;20.58;56.58;99818.00;7343754;19;129701;-39
2021/12/23 01:55:35;;;;;;;14.25;3.58;;;;;;;20.65;56.30;99814.75;7342786;19;129178;-41
2021/12/23 01:58:03;;;;;;;18.35;4.05;;;;;;;20.68;56.17;99804.03;7340985;19;130045;-40
2021/12/23 02:00:33;;;;;;;12.52;2.75;;;;;;;20.68;56.37;99800.59;7343628;19;129279;-40
2021/12/23 02:02:59;;;;;;;13.05;3.22;;;;;;;20.66;55.85;99792.03;7344554;19;129154;-39
2021/12/23 02:05:24;;;;;;;10.90;2.65;;;;;;;20.64;56.00;99786.97;7343850;19;129066;-38
2021/12/23 02:07:50;;;;;;;17.75;4.05;;;;;;;20.61;56.54;99786.38;7312370;19;129208;-38
2021/12/23 02:10:16;;;;;;;9.10;2.75;;;;;;;20.58;55.98;99789.25;7315351;19;133061;-37
2021/12/23 02:12:44;;;;;;;15.07;3.40;;;;;;;20.48;56.54;99762.25;7315560;19;129795;-41
2021/12/23 02:15:10;;;;;;;14.82;3.03;;;;;;;20.62;55.88;99781.06;7313918;19;129725;-40
2021/12/23 02:17:37;;;;;;;5.63;2.23;;;;;;;20.56;56.35;99772.91;7312763;19;129441;-40
2021/12/23 02:20:04;;;;;;;11.40;2.83;;;;;;;20.56;56.23;99759.84;7315398;19;130302;-38
2021/12/23 02:22:29;;;;;;;12.35;3.03;;;;;;;20.61;56.32;99762.88;7314673;19;132635;-38
2021/12/23 02:24:55;;;;;;;14.25;3.08;;;;;;;20.52;56.19;99758.44;7313363;19;154026;-38
2021/12/23 02:27:20;;;;;;;14.70;3.33;;;;;;;20.56;55.97;99746.78;7312945;19;128964;-41
2021/12/23 02:29:45;;;;;;;12.50;3.37;;;;;;;20.59;56.76;99749.13;7313334;19;159403;-38
2021/12/23 02:32:11;;;;;;;8.52;2.70;;;;;;;20.57;56.46;99730.16;7313482;19;159146;-39
2021/12/23 02:34:36;;;;;;;13.07;3.03;;;;;;;20.51;56.64;99725.44;7312590;19;154526;-37
2021/12/23 02:37:01;;;;;;;14.35;2.97;;;;;;;20.58;55.91;99730.00;7313348;19;129050;-38
2021/12/23 02:39:28;;;;;;;14.55;3.45;;;;;;;20.51;56.72;99726.25;7313385;19;129923;-38
2021/12/23 02:41:54;;;;;;;5.78;2.53;;;;;;;20.52;56.48;99717.50;7312898;19;159324;-40
2021/12/23 02:44:20;;;;;;;13.80;3.63;;;;;;;20.55;56.56;99726.84;7306821;19;129301;-37
2021/12/23 02:46:45;;;;;;;10.27;2.53;;;;;;;20.54;56.47;99726.00;7312925;19;129739;-37
2021/12/23 02:49:11;;;;;;;7.47;2.33;;;;;;;20.53;57.02;99726.13;7313658;19;130670;-37
2021/12/23 02:51:37;;;;;;;11.07;2.60;;;;;;;20.59;56.54;99723.00;7312604;19;154222;-39
2021/12/23 02:54:02;;;;;;;11.40;3.22;;;;;;;20.56;56.34;99712.84;7312369;19;144262;-39
2021/12/23 02:56:28;;;;;;;13.10;2.78;;;;;;;20.58;56.35;99716.13;7311229;19;128865;-39
2021/12/23 02:58:53;;;;;;;11.37;2.70;;;;;;;20.44;56.62;99692.97;7311490;19;158582;-40
2021/12/23 03:01:21;;;;;;;14.90;3.10;;;;;;;20.51;55.89;99688.88;7313914;19;133849;-38
2021/12/23 03:03:47;;;;;;;19.17;4.15;;;;;;;20.50;56.19;99692.44;7313305;19;130012;-39
2021/12/23 03:06:12;;;;;;;12.55;2.80;;;;;;;20.51;56.85;99696.72;7313929;19;128975;-40
2021/12/23 03:08:44;;;;;;;17.05;3.85;;;;;;;20.45;56.38;99685.00;7311809;19;130127;-38
2021/12/23 03:11:13;;;;;;;14.30;3.30;;;;;;;20.45;56.87;99676.34;7313304;19;130398;-40
2021/12/23 03:13:39;;;;;;;8.43;2.53;;;;;;;20.49;56.72;99670.72;7313705;19;128987;-38
2021/12/23 03:16:06;;;;;;;16.87;3.50;;;;;;;20.48;56.17;99676.91;7310807;19;129150;-39
2021/12/23 03:18:32;;;;;;;12.30;2.67;;;;;;;20.41;56.72;99649.66;7310440;19;131590;-37
2021/12/23 03:20:58;;;;;;;14.17;3.17;;;;;;;20.56;56.04;99657.97;7312126;19;129745;-41
2021/12/23 03:23:24;;;;;;;8.77;2.70;;;;;;;20.57;56.53;99650.00;7313759;19;128902;-39
2021/12/23 03:25:49;;;;;;;15.20;3.40;;;;;;;20.54;56.49;99645.03;7313227;19;129382;-39
2021/12/23 03:28:15;;;;;;;15.93;3.22;;;;;;;20.53;56.66;99642.56;7312091;19;130347;-39
2021/12/23 03:30:40;;;;;;;16.13;3.53;;;;;;;20.47;56.13;99630.88;7313683;19;129322;-37
2021/12/23 03:33:06;;;;;;;12.38;3.08;;;;;;;20.51;56.64;99636.66;7310518;19;152478;-38
2021/12/23 03:35:31;;;;;;;10.15;2.72;;;;;;;20.46;56.53;99638.84;7311144;19;129125;-38
2021/12/23 03:37:57;;;;;;;17.65;3.72;;;;;;;20.47;56.03;99630.03;7308694;19;158874;-39
2021/12/23 03:40:23;;;;;;;14.43;2.85;;;;;;;20.45;57.02;99624.09;7312457;19;130575;-39
2021/12/23 03:42:49;;;;;;;15.75;3.50;;;;;;;20.43;56.66;99613.78;7309285;19;129107;-38
2021/12/23 03:45:15;;;;;;;15.27;3.05;;;;;;;20.43;56.87;99597.28;7311992;19;129512;-38
2021/12/23 03:47:40;;;;;;;60.58;13.45;;;;;;;20.47;56.31;99611.75;7305211;19;129191;-38
2021/12/23 03:50:07;;;;;;;18.38;3.80;;;;;;;20.52;56.55;99614.78;7309994;19;158691;-37
2021/12/23 03:52:33;;;;;;;10.90;3.08;;;;;;;20.43;56.45;99599.91;7307345;19;129677;-37
2021/12/23 03:54:58;;;;;;;11.75;2.78;;;;;;;20.36;57.20;99589.16;7311200;19;129285;-38
2021/12/23 03:57:23;;;;;;;16.38;3.35;;;;;;;20.46;57.13;99586.59;7307810;19;158711;-38
2021/12/23 03:59:48;;;;;;;13.30;3.20;;;;;;;20.43;56.24;99565.97;7309657;19;158555;-38
2021/12/23 04:02:14;;;;;;;14.77;3.17;;;;;;;20.46;56.72;99574.34;7311932;19;131124;-39
2021/12/23 04:04:40;;;;;;;16.20;3.40;;;;;;;20.50;56.98;99578.38;7310689;19;129149;-39
2021/12/23 04:07:05;;;;;;;12.88;2.95;;;;;;;20.54;56.50;99573.72;7310696;19;129659;-38
2021/12/23 04:09:31;;;;;;;9.23;2.22;;;;;;;20.51;56.28;99580.00;7308913;19;158818;-39
2021/12/23 04:11:56;;;;;;;12.82;2.78;;;;;;;20.55;56.45;99565.72;7310554;19;154406;-38
2021/12/23 04:14:22;;;;;;;14.63;2.95;;;;;;;20.59;56.28;99561.06;7310074;19;153549;-40
2021/12/23 04:16:47;;;;;;;20.98;3.97;;;;;;;20.58;56.30;99548.97;7306887;19;158137;-40
2021/12/23 04:19:12;;;;;;;10.45;2.50;;;;;;;20.63;56.04;99547.59;7310036;19;140993;-38
2021/12/23 04:21:39;;;;;;;14.48;3.70;;;;;;;20.67;56.34;99553.38;7310142;19;129081;-38
2021/12/23 04:24:05;;;;;;;;;;;;;;;20.64;56.29;99540.59;7311189;19;129135;-38
2021/12/23 04:26:30;;;;;;;16.30;3.60;;;;;;;20.56;56.43;99535.22;7310132;19;130187;-38
2021/12/23 04:28:56;;;;;;;15.18;3.40;;;;;;;20.56;56.24;99524.78;7307491;19;158630;-38
2021/12/23 04:31:22;;;;;;;12.68;2.63;;;;;;;20.56;56.31;99525.59;7311473;19;129528;-40
2021/12/23 04:33:48;;;;;;;;;;;;;;;20.55;57.43;99513.50;7310469;19;129612;-40
2021/12/23 04:36:16;;;;;;;16.73;3.67;;;;;;;20.54;56.62;99516.25;7307761;19;131430;-40
2021/12/23 04:38:43;;;;;;;19.20;3.47;;;;;;;20.52;56.89;99507.72;7310412;19;130652;-39
2021/12/23 04:41:08;;;;;;;9.75;2.85;;;;;;;20.54;56.85;99511.81;7311900;19;129195;-39
2021/12/23 04:43:34;;;;;;;11.68;2.35;;;;;;;20.51;57.43;99500.84;7311737;19;129218;-39
2021/12/23 04:46:00;;;;;;;13.48;2.92;;;;;;;20.52;56.61;99495.50;7308594;19;157244;-39
2021/12/23 04:48:26;;;;;;;13.75;2.95;;;;;;;20.40;57.26;99477.44;7305564;19;129770;-38
2021/12/23 04:50:52;;;;;;;20.08;3.97;;;;;;;20.41;57.57;99479.94;7311444;19;129193;-39
2021/12/23 04:53:17;;;;;;;10.82;2.72;;;;;;;20.53;56.75;99489.28;7307741;19;154293;-39
2021/12/23 04:55:42;;;;;;;19.73;3.72;;;;;;;20.50;57.48;99484.34;7304772;19;158075;-38
2021/12/23 04:58:09;;;;;;;19.20;4.15;;;;;;;20.52;56.64;99481.59;7305100;19;129232;-39
2021/12/23 05:00:35;;;;;;;14.03;3.27;;;;;;;20.43;57.14;99464.94;7309859;19;129730;-40
2021/12/23 05:03:00;;;;;;;12.77;2.67;;;;;;;20.56;56.56;99475.16;7309840;19;129602;-40
2021/12/23 05:05:25;;;;;;;15.60;3.40;;;;;;;20.63;56.84;99473.63;7308119;19;130125;-36
2021/12/23 05:07:51;;;;;;;14.52;3.58;;;;;;;20.57;57.17;99471.56;7306983;19;130409;-40
2021/12/23 05:10:20;;;;;;;17.10;3.17;;;;;;;20.58;56.28;99468.00;7306268;19;152460;-39
2021/12/23 05:12:46;;;;;;;14.27;3.15;;;;;;;20.62;56.54;99462.38;7309109;19;129435;-38
2021/12/23 05:15:15;;;;;;;15.17;3.33;;;;;;;20.61;56.94;99452.88;7306584;19;130129;-37
2021/12/23 05:17:40;;;;;;;26.27;4.95;;;;;;;20.65;56.33;99450.81;7301784;19;129800;-38
2021/12/23 05:20:08;;;;;;;18.98;3.50;;;;;;;20.66;56.24;99442.00;7309413;19;129249;-40
2021/12/23 05:22:33;;;;;;;11.88;2.63;;;;;;;20.72;55.83;99438.88;7309784;19;129757;-40
2021/12/23 05:24:59;;;;;;;12.25;2.58;;;;;;;20.66;56.41;99431.56;7309925;19;130351;-40
2021/12/23 05:27:25;;;;;;;14.98;3.03;;;;;;;20.62;55.98;99435.44;7307558;19;130414;-37
2021/12/23 05:29:50;;;;;;;18.48;3.58;;;;;;;20.60;56.65;99439.94;7310100;19;129478;-39
2021/12/23 05:32:15;;;;;;;8.18;2.47;;;;;;;20.51;56.82;99432.97;7308648;19;129228;-39
2021/12/23 05:34:40;;;;;;;16.42;3.45;;;;;;;20.46;56.50;99419.47;7307400;19;159070;-38
2021/12/23 05:37:06;;;;;;;14.43;3.33;;;;;;;20.43;56.65;99420.56;7307041;19;129268;-40
2021/12/23 05:39:31;;;;;;;14.18;3.33;;;;;;;20.41;56.65;99414.66;7307034;19;154205;-40
2021/12/23 05:41:56;;;;;;;10.13;2.23;;;;;;;20.37;56.92;99410.69;7311658;19;153991;-40
2021/12/23 05:44:22;;;;;;;10.57;2.70;;;;;;;20.47;56.97;99415.91;7316657;19;129361;-39
2021/12/23 05:46:47;;;;;;;13.98;3.33;;;;;;;20.45;56.93;99418.66;7314355;19;130247;-39
2021/12/23 05:49:12;;;;;;;14.60;3.35;;;;;;;20.45;56.57;99402.16;7308062;19;153974;-39
2021/12/23 05:51:38;;;;;;;15.52;3.38;;;;;;;20.42;56.70;99395.44;7315788;19;129479;-39
2021/12/23 05:54:04;;;;;;;13.35;3.40;;;;;;;20.46;56.87;99393.38;7311732;19;129845;-39
2021/12/23 05:56:29;;;;;;;6.80;2.25;;;;;;;20.52;56.22;99377.97;7312433;19;129154;-39
2021/12/23 05:58:54;;;;;;;16.37;3.50;;;;;;;20.64;55.75;99378.66;7309128;19;155424;-40
2021/12/23 06:01:19;;;;;;;14.50;3.00;;;;;;;20.62;56.16;99368.34;7306916;19;129171;-39
2021/12/23 06:03:46;;;;;;;23.20;5.35;;;;;;;20.54;55.93;99370.00;7314053;19;135531;-41
2021/12/23 06:06:15;;;;;;;11.98;2.85;;;;;;;20.61;56.01;99378.91;7306363;19;131064;-39
2021/12/23 06:08:41;;;;;;;13.88;3.08;;;;;;;20.74;55.98;99382.09;7314842;19;129109;-39
2021/12/23 06:11:07;;;;;;;12.37;2.97;;;;;;;20.67;56.14;99378.38;7309969;19;130584;-40
2021/12/23 06:13:32;;;;;;;16.42;3.63;;;;;;;20.62;55.75;99354.47;7314118;19;129212;-40
2021/12/23 06:15:57;;;;;;;15.93;3.73;;;;;;;20.66;56.02;99379.31;7306045;19;158281;-38
2021/12/23 06:18:23;;;;;;;15.83;3.10;;;;;;;20.62;56.44;99367.50;7313358;19;141178;-41
2021/12/23 06:20:48;;;;;;;12.75;2.92;;;;;;;20.60;56.08;99382.50;7315306;19;129456;-40
2021/12/23 06:23:13;;;;;;;13.38;3.28;;;;;;;20.62;55.99;99380.56;7314955;19;130197;-40
2021/12/23 06:25:39;;;;;;;18.13;3.40;;;;;;;20.58;56.37;99366.13;7314096;19;129584;-39
2021/12/23 06:28:05;;;;;;;15.23;2.97;;;;;;;20.62;56.29;99372.75;7313621;19;129463;-39
2021/12/23 06:30:30;;;;;;;9.60;2.75;;;;;;;20.59;56.16;99381.66;7314074;19;132743;-38
2021/12/23 06:32:56;;;;;;;13.23;3.20;;;;;;;20.62;56.74;99385.81;7313683;19;129380;-39
2021/12/23 06:35:24;;;;;;;11.90;2.67;;;;;;;20.60;56.17;99380.72;7313561;19;130306;-41
2021/12/23 06:37:50;;;;;;;17.40;3.63;;;;;;;20.55;56.24;99377.69;7304757;19;129292;-38
2021/12/23 06:40:15;;;;;;;13.43;3.10;;;;;;;20.54;56.01;99370.00;7314657;19;129531;-38
2021/12/23 06:42:41;;;;;;;11.55;3.40;;;;;;;20.57;55.94;99367.09;7309615;19;130193;-38
2021/12/23 06:45:07;;;;;;;14.63;3.47;;;;;;;20.56;56.08;99362.84;7311328;19;129999;-38
2021/12/23 06:47:34;;;;;;;17.60;4.87;;;;;;;20.39;56.54;99361.75;7311013;19;130000;-38
2021/12/23 06:50:00;;;;;;;;;;;;;;;20.49;56.22;99373.00;7313199;19;129859;-38
2021/12/23 06:52:25;;;;;;;15.93;3.45;;;;;;;20.48;56.66;99370.53;7312515;19;129403;-39
2021/12/23 06:54:53;;;;;;;22.55;4.72;;;;;;;20.51;56.80;99375.50;7311869;19;131252;-38
2021/12/23 06:57:20;;;;;;;18.52;3.63;;;;;;;20.54;56.29;99376.03;7310719;19;130396;-38
2021/12/23 06:59:45;;;;;;;;;;;;;;;20.53;56.87;99356.09;7313397;19;129618;-38
2021/12/23 07:02:10;;;;;;;18.17;3.83;;;;;;;20.52;56.61;99353.63;7310833;19;159801;-37
2021/12/23 07:04:36;;;;;;;12.43;3.17;;;;;;;20.54;56.25;99356.94;7310699;19;159461;-38
2021/12/23 07:07:10;;;;;;;14.02;3.35;;;;;;;20.52;56.76;99358.84;7311605;19;130171;-38
2021/12/23 07:09:37;;;;;;;13.43;3.35;;;;;;;20.50;56.88;99363.38;7311786;19;129613;-38
2021/12/23 07:12:04;;;;;;;12.93;3.05;;;;;;;20.50;57.14;99355.56;7313736;19;129460;-38
2021/12/23 07:14:29;;;;;;;;;;;;;;;20.47;57.48;99348.84;7311052;19;131345;-38
2021/12/23 07:16:54;;;;;;;11.73;3.13;;;;;;;20.49;57.33;99346.09;7310519;19;129359;-38
2021/12/23 07:19:19;;;;;;;16.77;3.33;;;;;;;20.52;57.22;99356.25;7311795;19;129617;-38
2021/12/23 07:21:45;;;;;;;20.38;4.00;;;;;;;20.50;56.81;99363.38;7308125;19;158300;-38
2021/12/23 07:24:10;;;;;;;18.42;3.63;;;;;;;20.50;57.01;99353.78;7310764;19;159399;-38
2021/12/23 07:26:35;;;;;;;19.90;3.93;;;;;;;20.52;57.08;99346.63;7308383;19;154636;-37
2021/12/23 07:29:01;;;;;;;17.27;4.10;;;;;;;20.53;57.34;99335.22;7311137;19;129443;-38
2021/12/23 07:31:26;;;;;;;8.52;2.42;;;;;;;20.49;56.91;99319.97;7312715;19;130083;-39
2021/12/23 07:33:51;;;;;;;19.30;4.50;;;;;;;20.49;57.01;99325.19;7306430;19;150332;-38
2021/12/23 07:36:18;;;;;;;12.70;3.27;;;;;;;20.47;57.34;99329.72;7307477;19;154539;-38
2021/12/23 07:38:43;;;;;;;24.75;4.35;;;;;;;20.44;57.02;99340.44;7311145;19;128952;-38
2021/12/23 07:41:09;;;;;;;14.18;3.30;;;;;;;20.44;57.32;99348.28;7307552;19;129120;-39
2021/12/23 07:46:02;;;;;;;14.85;3.30;;;;;;;20.49;56.85;99346.88;7305211;19;144683;-37
2021/12/23 07:48:27;;;;;;;13.75;3.13;;;;;;;20.54;57.07;99338.66;7312385;19;129991;-38
2021/12/23 07:50:54;;;;;;;12.88;3.42;;;;;;;20.50;57.30;99342.50;7311220;19;129595;-39
2021/12/23 07:53:20;;;;;;;13.60;3.45;;;;;;;20.46;56.88;99347.16;7311521;19;129241;-37
2021/12/23 07:55:45;;;;;;;19.13;3.95;;;;;;;20.48;56.79;99340.03;7310618;19;129739;-38
2021/12/23 07:58:10;;;;;;;24.60;4.97;;;;;;;20.43;56.78;99339.63;7301609;19;152050;-39
2021/12/23 08:00:36;;;;;;;5.65;2.72;;;;;;;20.47;56.82;99340.16;7311423;19;129218;-38
2021/12/23 08:03:02;;;;;;;13.20;3.40;;;;;;;20.47;56.80;99340.16;7311453;19;129705;-37
2021/12/23 08:05:28;;;;;;;15.23;3.47;;;;;;;20.44;56.77;99327.41;7307922;19;130472;-39
2021/12/23 08:07:54;;;;;;;13.50;3.40;;;;;;;20.46;57.18;99328.09;7308741;19;129223;-37
2021/12/23 08:10:20;;;;;;;14.20;3.42;;;;;;;20.48;56.61;99324.38;7312076;19;130442;-38
2021/12/23 08:12:46;;;;;;;13.75;3.35;;;;;;;20.47;56.65;99316.66;7310572;19;129301;-38
2021/12/23 08:15:12;;;;;;;12.98;3.30;;;;;;;20.47;56.85;99306.22;7310014;19;151789;-38
2021/12/23 08:17:37;;;;;;;16.83;3.80;;;;;;;20.49;57.13;99309.53;7309093;19;129282;-38
2021/12/23 08:20:05;;;;;;;18.13;3.83;;;;;;;20.54;56.91;99302.09;7310331;19;129520;-38
2021/12/23 08:22:30;;;;;;;24.48;5.07;;;;;;;20.58;56.45;99312.13;7308872;19;131297;-38
2021/12/23 08:24:56;;;;;;;13.60;3.45;;;;;;;20.58;56.28;99306.06;7309844;19;129122;-39
2021/12/23 08:27:25;;;;;;;20.85;4.57;;;;;;;20.55;56.41;99304.56;7306916;19;132796;-38
2021/12/23 08:29:50;;;;;;;18.17;3.97;;;;;;;20.56;56.16;99300.19;7310063;19;130468;-37
2021/12/23 08:32:15;;;;;;;15.30;3.25;;;;;;;20.57;56.26;99291.38;7308510;19;158415;-38
2021/12/23 08:34:41;;;;;;;17.63;3.92;;;;;;;20.57;56.89;99284.38;7308293;19;154027;-38
2021/12/23 08:37:10;;;;;;;14.13;3.37;;;;;;;20.53;56.45;99269.09;7306759;19;155512;-39
2021/12/23 08:39:36;;;;;;;8.82;2.78;;;;;;;20.55;56.20;99278.44;7310780;19;130537;-38
2021/12/23 08:42:02;;;;;;;15.52;3.72;;;;;;;20.54;56.73;99260.31;7308859;19;129275;-38
2021/12/23 08:44:27;;;;;;;13.30;3.50;;;;;;;20.52;56.02;99257.00;7310685;19;129360;-38
2021/12/23 08:46:53;;;;;;;18.45;3.83;;;;;;;20.57;56.63;99260.03;7308585;19;132921;-38
2021/12/23 08:49:18;;;;;;;13.57;3.17;;;;;;;20.56;56.14;99284.50;7306925;19;159773;-38
2021/12/23 08:51:43;;;;;;;16.05;3.47;;;;;;;20.60;56.19;99270.19;7307916;19;158439;-38
2021/12/23 08:54:10;;;;;;;17.75;3.75;;;;;;;20.57;56.30;99265.25;7307049;19;129487;-38
2021/12/23 08:56:35;;;;;;;;;;;;;;;20.46;57.01;99236.69;7309444;19;129049;-38
2021/12/23 08:59:01;;;;;;;17.57;4.23;;;;;;;20.53;55.74;99253.44;7308918;19;137884;-38
2021/12/23 09:01:26;;;;;;;13.63;3.65;;;;;;;20.59;56.64;99240.63;7308429;19;158756;-39
2021/12/23 09:03:51;;;;;;;24.10;5.35;;;;;;;20.67;56.01;99219.03;7309823;19;129785;-38
2021/12/23 09:06:16;;;;;;;14.43;3.40;;;;;;;20.69;55.85;99217.09;7307307;19;155034;-38
2021/12/23 09:08:42;;;;;;;15.95;3.53;;;;;;;20.54;56.53;99226.38;7308360;19;138996;-37
2021/12/23 09:11:07;;;;;;;14.88;3.88;;;;;;;20.54;56.12;99235.00;7308795;19;158473;-37
2021/12/23 09:13:33;;;;;;;6.90;2.60;;;;;;;20.63;55.96;99233.34;7308172;19;154479;-39
2021/12/23 09:15:59;;;;;;;12.35;3.10;;;;;;;20.53;56.52;99215.09;7309588;19;129208;-39
2021/12/23 09:18:25;;;;;;;20.30;4.20;;;;;;;20.51;56.21;99209.19;7314683;19;130773;-40
2021/12/23 09:20:52;;;;;;;17.98;3.97;;;;;;;20.51;56.04;99216.22;7316107;19;130292;-39
2021/12/23 09:23:17;;;;;;;16.70;3.83;;;;;;;20.53;56.22;99201.19;7316049;19;129455;-38
2021/12/23 09:25:45;;;;;;;25.08;4.80;;;;;;;20.53;56.17;99207.25;7312298;19;129858;-38
2021/12/23 09:28:24;;;;;;;22.10;4.32;;;;;;;20.54;56.76;99198.44;7308926;19;130329;-38
2021/12/23 09:33:36;;;;;;;15.73;3.78;;;;;;;20.52;56.61;99210.00;7316729;19;129056;-39
2021/12/23 09:36:02;;;;;;;20.00;4.03;;;;;;;20.56;56.55;99206.16;7313617;19;128845;-39
2021/12/23 09:38:28;;;;;;;13.48;3.13;;;;;;;20.56;56.08;99198.31;7315943;19;130741;-37
2021/12/23 09:41:07;;;;;;;19.10;4.28;;;;;;;20.46;57.61;99182.66;7310040;19;137774;-41
2021/12/23 09:43:35;;;;;;;12.27;3.38;;;;;;;20.54;56.07;99197.63;7311361;19;129343;-40
2021/12/23 09:46:01;;;;;;;17.73;4.15;;;;;;;20.51;56.46;99198.72;7315115;19;129370;-40
2021/12/23 09:48:28;;;;;;;11.45;3.13;;;;;;;20.53;56.18;99195.97;7310599;19;130118;-39
2021/12/23 09:50:56;;;;;;;12.18;3.58;;;;;;;20.47;56.75;99191.34;7314243;19;130249;-40
2021/12/23 09:53:22;;;;;;;14.10;3.42;;;;;;;20.39;56.36;99162.50;7314464;19;129198;-40
2021/12/23 09:55:49;;;;;;;17.50;4.10;;;;;;;20.52;56.09;99183.91;7312766;19;129150;-39
2021/12/23 09:58:15;;;;;;;12.50;3.10;;;;;;;20.52;56.47;99160.41;7311058;19;131154;-39
2021/12/23 10:00:45;;;;;;;16.20;3.92;;;;;;;20.50;56.19;99147.47;7314497;19;129237;-40
2021/12/23 10:03:12;;;;;;;23.63;4.82;;;;;;;20.58;55.93;99155.41;7313710;19;129320;-40
2021/12/23 10:05:38;;;;;;;13.00;3.53;;;;;;;20.51;56.47;99148.31;7315311;19;129064;-41
2021/12/23 10:08:05;;;;;;;23.77;5.07;;;;;;;20.50;57.20;99154.47;7310919;19;130816;-39
2021/12/23 10:10:45;;;;;;;13.90;3.60;;;;;;;20.45;56.65;99133.19;7313490;19;129886;-40
2021/12/23 10:27:00;;;;;;;46.40;8.40;;;;;;;20.32;51.17;99141.38;7314038;19;129533;-39
2021/12/23 10:30:18;;;;;;;37.33;7.18;;;;;;;20.37;50.50;99135.72;7314996;19;129932;-38
2021/12/23 10:33:09;;;;;;;40.08;8.18;;;;;;;20.45;50.08;99136.66;7314226;19;129451;-39
2021/12/23 10:38:30;;;;;;;40.35;8.63;;;;;;;20.35;51.14;99129.81;7313855;19;129929;-39
2021/12/23 10:41:10;;;;;;;32.40;7.05;;;;;;;20.35;51.74;99124.56;7312929;19;131974;-38
2021/12/23 10:43:57;;;;;;;90.10;17.75;;;;;;;20.31;50.62;99118.00;7307957;19;130178;-40
2021/12/23 10:46:29;;;;;;;46.08;9.95;;;;;;;20.21;52.36;99104.16;7308954;19;129779;-39
2021/12/23 10:52:13;;;;;;;33.65;8.80;;;;;;;20.29;52.95;99109.50;7309611;19;129896;-38
2021/12/23 11:00:37;;;;;;;23.65;6.40;;;;;;;20.07;51.66;99068.06;7309317;19;129845;-39
2021/12/23 11:03:20;;;;;;;34.03;7.90;;;;;;;20.17;51.86;99080.16;7309470;19;129237;-40
2021/12/23 11:05:57;;;;;;;41.65;8.90;;;;;;;20.20;50.94;99068.56;7307601;19;130694;-40
2021/12/23 11:08:33;;;;;;;37.50;7.43;;;;;;;20.25;50.22;99061.97;7309058;19;129355;-40
2021/12/23 11:11:30;;;;;;;24.48;7.00;;;;;;;20.31;50.18;99055.38;7311559;19;129547;-41
2021/12/23 11:36:21;;;;;;;34.05;10.55;;;;;;;20.79;43.31;98971.50;7302796;19;130443;-40
2021/12/23 11:43:55;;;;;;;32.83;9.93;;;;;;;20.86;44.97;98912.47;7303991;19;128972;-38
2021/12/23 11:46:25;;;;;;;26.85;7.63;;;;;;;20.89;44.61;98889.44;7307957;19;130797;-38
2021/12/23 11:48:54;;;;;;;32.88;8.57;;;;;;;20.90;45.30;98870.19;7308356;19;130679;-36
2021/12/23 11:51:29;;;;;;;22.75;7.03;;;;;;;20.90;44.83;98891.09;7304626;19;129575;-38
2021/12/23 11:53:56;;;;;;;39.40;10.00;;;;;;;20.88;44.73;98902.66;7307452;19;129322;-39
2021/12/23 11:56:24;;;;;;;33.45;8.75;;;;;;;20.75;45.70;98913.50;7306801;19;129750;-41
2021/12/23 11:58:51;;;;;;;30.15;8.68;;;;;;;20.87;45.76;98933.22;7307997;19;131246;-38
2021/12/23 12:01:20;;;;;;;19.85;7.32;;;;;;;20.79;45.64;98920.09;7307701;19;129689;-38
2021/12/23 12:03:54;;;;;;;28.42;8.77;;;;;;;20.74;45.75;98917.91;7302738;19;130899;-41
2021/12/23 12:06:26;;;;;;;20.30;7.20;;;;;;;20.70;46.16;98920.97;7307674;19;130149;-41
2021/12/23 12:09:09;;;;;;;24.80;7.50;;;;;;;20.65;46.53;98916.19;7306875;19;129121;-37
2021/12/23 12:11:34;;;;;;;30.55;7.95;;;;;;;20.61;46.60;98916.63;7308623;19;130514;-36
2021/12/23 12:13:59;;;;;;;19.98;7.10;;;;;;;20.54;46.56;98923.44;7306384;19;154208;-40
2021/12/23 12:16:29;;;;;;;28.17;8.20;;;;;;;20.51;46.70;98915.91;7306293;19;143360;-39
2021/12/23 12:18:55;;;;;;;34.45;9.40;;;;;;;20.48;47.33;98916.19;7305712;19;140025;-39
2021/12/23 12:21:28;;;;;;;24.08;7.47;;;;;;;20.42;47.51;98906.34;7307584;19;137332;-38
2021/12/23 12:24:07;;;;;;;39.53;10.48;;;;;;;20.38;48.09;98891.94;7306133;19;129689;-40
2021/12/23 12:26:34;;;;;;;27.30;7.38;;;;;;;20.36;48.17;98880.84;7306413;19;132437;-41